Time;durP1;ratioP1;P1;durP2;ratioP2;P2;SDS_P1;SDS_P2;PMS_P1;PMS_P2;Temp;Humidity;BMP_temperature;BMP_pressure;BME280_temperature;BME280_humidity;BME280_pressure;Samples;Min_cycle;Max_cycle;Signal;HPM_P1;HPM_P2
2022/03/10 00:01:51;;;;;;;11.25;8.32;;;18.20;33.40;;;;;;5120917;28;20031;-38
2022/03/10 00:04:18;;;;;;;11.07;8.68;;;18.20;33.40;;;;;;5121022;28;20028;-38
2022/03/10 00:06:45;;;;;;;11.63;8.98;;;18.20;33.40;;;;;;5121369;28;20016;-39
2022/03/10 00:09:11;;;;;;;12.60;8.45;;;18.20;33.40;;;;;;5120208;28;20537;-42
2022/03/10 00:11:36;;;;;;;12.00;8.65;;;18.10;33.30;;;;;;5102136;28;20043;-40
2022/03/10 00:14:02;;;;;;;12.43;8.98;;;18.20;33.40;;;;;;5120659;28;20020;-40
2022/03/10 00:16:28;;;;;;;13.27;9.93;;;18.10;33.20;;;;;;5119568;28;20020;-39
2022/03/10 00:18:54;;;;;;;11.50;8.98;;;18.10;33.20;;;;;;5119454;28;20470;-42
2022/03/10 00:21:19;;;;;;;12.00;8.95;;;18.10;33.30;;;;;;5101016;28;20497;-44
2022/03/10 00:23:45;;;;;;;12.57;9.57;;;18.10;33.30;;;;;;5119398;28;20020;-39
2022/03/10 00:26:11;;;;;;;12.15;9.20;;;18.10;33.30;;;;;;5119691;28;20024;-40
2022/03/10 00:28:38;;;;;;;11.02;8.85;;;18.10;33.30;;;;;;5102332;28;20038;-39
2022/03/10 00:31:03;;;;;;;11.55;9.32;;;18.10;33.30;;;;;;5102436;28;20015;-40
2022/03/10 00:33:30;;;;;;;12.80;9.75;;;18.10;33.30;;;;;;5120339;28;20064;-39
2022/03/10 00:35:55;;;;;;;12.02;9.18;;;18.10;33.20;;;;;;5119976;28;20048;-41
2022/03/10 00:38:21;;;;;;;13.52;9.63;;;18.00;33.20;;;;;;5118956;28;20525;-38
2022/03/10 00:40:47;;;;;;;12.90;9.95;;;18.00;33.20;;;;;;5119820;28;20069;-38
2022/03/10 00:43:13;;;;;;;14.00;9.82;;;18.00;33.20;;;;;;5119112;28;20095;-37
2022/03/10 00:45:39;;;;;;;12.20;9.63;;;18.00;33.20;;;;;;5100894;28;20088;-38
2022/03/10 00:48:05;;;;;;;13.30;10.27;;;18.00;33.20;;;;;;5083816;28;20093;-40
2022/03/10 00:50:32;;;;;;;13.50;10.10;;;18.00;33.20;;;;;;5101002;28;20024;-41
2022/03/10 00:52:59;;;;;;;13.85;9.38;;;18.00;33.20;;;;;;5100946;28;20041;-40
2022/03/10 00:55:25;;;;;;;12.77;9.50;;;18.00;33.20;;;;;;5101066;28;20038;-38
2022/03/10 00:57:51;;;;;;;12.68;9.80;;;18.00;33.20;;;;;;5084461;28;20083;-42
2022/03/10 01:00:17;;;;;;;13.50;10.15;;;18.00;33.10;;;;;;5103218;28;20016;-39
2022/03/10 01:02:43;;;;;;;12.93;9.65;;;18.00;33.10;;;;;;5120907;28;20023;-39
2022/03/10 01:05:09;;;;;;;12.65;9.13;;;18.00;33.20;;;;;;5122227;28;20057;-42
2022/03/10 01:07:35;;;;;;;13.23;10.00;;;18.00;33.10;;;;;;5102260;28;20507;-39
2022/03/10 01:10:05;;;;;;;14.35;10.13;;;18.00;33.10;;;;;;5084660;28;20024;-41
2022/03/10 01:12:31;;;;;;;13.55;9.30;;;18.00;33.00;;;;;;5118747;28;20039;-38
2022/03/10 01:14:57;;;;;;;12.27;9.65;;;18.00;33.10;;;;;;5117343;28;20381;-39
2022/03/10 01:17:23;;;;;;;12.88;9.73;;;18.00;33.00;;;;;;5117590;28;20470;-39
2022/03/10 01:19:49;;;;;;;10.68;9.13;;;17.90;33.00;;;;;;5117817;28;20020;-38
2022/03/10 01:22:15;;;;;;;15.00;9.63;;;17.90;33.00;;;;;;5099580;28;20022;-39
2022/03/10 01:24:41;;;;;;;14.55;9.98;;;17.90;33.10;;;;;;5117994;28;20019;-39
2022/03/10 01:27:08;;;;;;;11.77;9.88;;;17.90;33.00;;;;;;5099391;28;20120;-40
2022/03/10 01:29:35;;;;;;;13.90;10.60;;;17.90;32.80;;;;;;5117086;28;20083;-40
2022/03/10 01:32:00;;;;;;;14.73;10.82;;;17.90;32.90;;;;;;5117610;28;20024;-39
2022/03/10 01:34:27;;;;;;;14.10;10.43;;;17.90;33.00;;;;;;5100198;28;20023;-42
2022/03/10 01:36:53;;;;;;;13.40;10.00;;;17.90;32.90;;;;;;5100563;28;20501;-37
2022/03/10 01:39:18;;;;;;;13.63;9.25;;;17.90;32.90;;;;;;5100362;28;20027;-45
2022/03/10 01:41:45;;;;;;;12.40;9.95;;;17.90;33.00;;;;;;5116270;28;20510;-37
2022/03/10 01:44:11;;;;;;;13.27;9.93;;;17.90;32.90;;;;;;5118616;28;20012;-37
2022/03/10 01:46:37;;;;;;;12.85;9.98;;;17.90;32.90;;;;;;5100380;28;20016;-37
2022/03/10 01:49:04;;;;;;;13.05;10.18;;;17.90;33.00;;;;;;5118608;28;20019;-42
2022/03/10 01:51:30;;;;;;;14.80;10.50;;;17.90;32.90;;;;;;5101109;28;20077;-41
2022/03/10 01:53:56;;;;;;;13.50;10.30;;;17.90;32.90;;;;;;5118673;28;20037;-39
2022/03/10 01:56:22;;;;;;;14.05;10.38;;;17.90;32.80;;;;;;5100176;28;20068;-39
2022/03/10 01:58:49;;;;;;;12.32;9.82;;;17.90;32.80;;;;;;5119443;28;20091;-39
2022/03/10 02:01:16;;;;;;;13.00;10.52;;;17.90;32.70;;;;;;5119353;28;20051;-39
2022/03/10 02:03:42;;;;;;;13.77;10.27;;;17.90;32.60;;;;;;5119537;28;20042;-39
2022/03/10 02:06:08;;;;;;;12.50;10.25;;;17.90;32.70;;;;;;5119210;28;20019;-40
2022/03/10 02:11:19;;;;;;;12.73;9.95;;;17.80;32.70;;;;;;5117545;28;20085;-38
2022/03/10 02:13:45;;;;;;;13.23;10.38;;;17.80;32.60;;;;;;5117689;28;20008;-40
2022/03/10 02:19:00;;;;;;;14.40;10.40;;;17.90;32.70;;;;;;5117230;28;20397;-41
2022/03/10 02:21:26;;;;;;;13.95;10.27;;;17.80;33.20;;;;;;5098563;28;20031;-39
2022/03/10 02:23:53;;;;;;;13.45;10.82;;;17.80;32.50;;;;;;5098305;28;20477;-39
2022/03/10 02:26:19;;;;;;;13.57;10.20;;;17.80;32.60;;;;;;5099228;28;20012;-41
2022/03/10 02:28:45;;;;;;;14.38;10.38;;;17.80;32.60;;;;;;5099583;28;20015;-39
2022/03/10 02:31:11;;;;;;;12.70;9.90;;;17.80;32.60;;;;;;5099710;28;20526;-40
2022/03/10 02:33:37;;;;;;;15.52;10.70;;;17.80;32.60;;;;;;5118008;28;20095;-44
2022/03/10 02:36:04;;;;;;;15.52;10.68;;;17.80;32.60;;;;;;5117949;28;20020;-44
2022/03/10 02:38:30;;;;;;;13.63;10.45;;;17.80;32.60;;;;;;5100329;28;20079;-44
2022/03/10 02:40:56;;;;;;;13.75;10.52;;;17.80;32.60;;;;;;5102248;28;20059;-42
2022/03/10 02:43:22;;;;;;;13.73;10.13;;;17.70;32.60;;;;;;5103159;28;20015;-43
2022/03/10 02:45:48;;;;;;;15.27;10.95;;;17.80;32.50;;;;;;5121418;28;20501;-42
2022/03/10 02:48:15;;;;;;;13.07;10.48;;;17.80;32.40;;;;;;5122265;28;20501;-38
2022/03/10 02:50:41;;;;;;;16.30;10.85;;;17.80;32.60;;;;;;5103378;28;20016;-38
2022/03/10 02:53:08;;;;;;;13.52;10.15;;;17.70;32.50;;;;;;5121209;28;20026;-38
2022/03/10 02:55:34;;;;;;;14.70;10.68;;;17.80;32.50;;;;;;5121481;28;20019;-37
2022/03/10 02:58:00;;;;;;;13.32;10.40;;;17.80;32.50;;;;;;5121101;28;20023;-39
2022/03/10 03:00:27;;;;;;;15.07;11.02;;;17.70;32.40;;;;;;5103386;28;20030;-39
2022/03/10 03:02:53;;;;;;;13.77;10.52;;;17.70;32.40;;;;;;5122663;28;20016;-41
2022/03/10 03:05:19;;;;;;;13.35;10.85;;;17.70;32.50;;;;;;5102480;28;20026;-37
2022/03/10 03:07:45;;;;;;;13.40;10.20;;;17.70;32.40;;;;;;5120827;28;20008;-37
2022/03/10 03:10:11;;;;;;;14.23;10.77;;;17.70;32.40;;;;;;5120214;28;20023;-41
2022/03/10 03:13:05;;;;;;;13.40;10.43;;;17.70;32.40;;;;;;5102376;28;20642;-39
2022/03/10 03:15:31;;;;;;;14.52;10.63;;;17.70;32.30;;;;;;5117871;28;20071;-40
2022/03/10 03:17:57;;;;;;;13.15;10.13;;;17.70;32.40;;;;;;5101973;28;20121;-38
2022/03/10 03:20:23;;;;;;;12.23;9.73;;;17.70;32.50;;;;;;5102302;28;20019;-40
2022/03/10 03:22:49;;;;;;;13.25;10.25;;;17.70;32.40;;;;;;5101891;28;20489;-40
2022/03/10 03:25:16;;;;;;;15.00;10.75;;;17.70;32.40;;;;;;5120702;28;20023;-39
2022/03/10 03:27:43;;;;;;;12.60;10.38;;;17.60;32.40;;;;;;5119193;28;20024;-37
2022/03/10 03:30:09;;;;;;;13.15;9.85;;;17.70;32.50;;;;;;5119387;28;20019;-38
2022/03/10 03:32:35;;;;;;;12.73;9.82;;;17.60;32.40;;;;;;5119021;28;20069;-38
2022/03/10 03:35:00;;;;;;;12.63;10.23;;;17.70;32.50;;;;;;5119838;28;20367;-39
2022/03/10 03:37:27;;;;;;;15.85;10.77;;;17.60;32.30;;;;;;5120239;28;20018;-41
2022/03/10 03:39:53;;;;;;;14.45;10.93;;;17.60;32.30;;;;;;5102746;28;20169;-41
2022/03/10 03:42:19;;;;;;;14.43;10.50;;;17.60;32.90;;;;;;5102328;28;20031;-39
2022/03/10 03:44:45;;;;;;;14.75;10.80;;;17.60;32.40;;;;;;5102874;28;20012;-40
2022/03/10 03:47:12;;;;;;;14.05;10.10;;;17.60;32.40;;;;;;5119333;28;20469;-40
2022/03/10 03:49:38;;;;;;;13.73;10.38;;;17.60;32.40;;;;;;5119217;28;20026;-41
2022/03/10 03:52:04;;;;;;;13.95;10.52;;;17.60;32.50;;;;;;5118057;28;20042;-40
2022/03/10 03:54:31;;;;;;;14.23;10.80;;;17.60;32.40;;;;;;5117269;28;20028;-39
2022/03/10 03:56:57;;;;;;;13.07;10.10;;;17.60;32.40;;;;;;5117309;28;20008;-40
2022/03/10 03:59:24;;;;;;;13.45;10.05;;;17.60;32.50;;;;;;5118428;28;20016;-39
2022/03/10 04:01:51;;;;;;;15.00;10.43;;;17.60;32.50;;;;;;5119378;28;20052;-39
2022/03/10 04:04:19;;;;;;;13.60;10.75;;;17.60;32.50;;;;;;5101560;28;20023;-40
2022/03/10 04:06:45;;;;;;;13.35;10.45;;;17.60;32.50;;;;;;5101797;28;20024;-42
2022/03/10 04:09:12;;;;;;;13.45;10.20;;;17.60;32.60;;;;;;5119354;28;20546;-39
2022/03/10 04:11:38;;;;;;;14.90;10.90;;;17.50;32.50;;;;;;5119999;28;20023;-43
2022/03/10 04:14:05;;;;;;;14.93;11.30;;;17.50;32.50;;;;;;5102462;28;20405;-40
2022/03/10 04:16:31;;;;;;;13.50;10.15;;;17.50;33.10;;;;;;5101833;28;20027;-40
2022/03/10 04:18:57;;;;;;;12.90;10.25;;;17.50;32.60;;;;;;5120484;28;20016;-40
2022/03/10 04:21:23;;;;;;;13.48;10.25;;;17.50;32.50;;;;;;5101496;28;20028;-39
2022/03/10 04:23:49;;;;;;;14.10;10.40;;;17.60;32.50;;;;;;5120295;28;20026;-43
2022/03/10 04:26:15;;;;;;;13.93;10.20;;;17.50;32.60;;;;;;5121774;28;20022;-43
2022/03/10 04:28:43;;;;;;;13.00;10.43;;;17.50;32.60;;;;;;5103146;28;20106;-44
2022/03/10 04:31:09;;;;;;;14.18;10.98;;;17.50;32.70;;;;;;5120834;28;20012;-41
2022/03/10 04:33:37;;;;;;;13.93;10.45;;;17.50;32.60;;;;;;5121284;28;20047;-38
2022/03/10 04:36:04;;;;;;;13.25;10.43;;;17.50;32.70;;;;;;5120909;28;20081;-41
2022/03/10 04:38:29;;;;;;;13.25;10.32;;;17.50;32.70;;;;;;5102989;28;20007;-42
2022/03/10 04:40:56;;;;;;;13.45;10.30;;;17.50;32.70;;;;;;5101935;28;20040;-43
2022/03/10 04:43:21;;;;;;;14.90;10.60;;;17.50;32.60;;;;;;5119013;28;20026;-41
2022/03/10 04:45:47;;;;;;;15.02;11.30;;;17.50;32.60;;;;;;5120408;28;20012;-39
2022/03/10 04:48:13;;;;;;;12.48;9.80;;;17.50;32.60;;;;;;5101931;28;20069;-40
2022/03/10 04:50:39;;;;;;;13.07;10.30;;;17.50;32.50;;;;;;5121510;28;20543;-45
2022/03/10 04:53:05;;;;;;;13.13;9.95;;;17.50;32.00;;;;;;5120287;28;20377;-41
2022/03/10 04:55:31;;;;;;;12.15;10.27;;;17.60;32.70;;;;;;5102790;28;20023;-42
2022/03/10 04:57:57;;;;;;;13.13;10.40;;;17.70;32.30;;;;;;5119048;28;20090;-39
2022/03/10 05:00:23;;;;;;;13.98;10.38;;;17.80;32.10;;;;;;5118820;28;20028;-41
2022/03/10 05:02:50;;;;;;;12.77;9.77;;;17.90;32.00;;;;;;5099294;28;20359;-41
2022/03/10 05:05:17;;;;;;;13.85;9.75;;;18.00;31.80;;;;;;5118412;28;20022;-43
2022/03/10 05:07:43;;;;;;;13.43;9.70;;;18.10;31.60;;;;;;5100660;28;20015;-42
2022/03/10 05:10:10;;;;;;;12.60;9.65;;;18.30;31.50;;;;;;5118018;28;20389;-38
2022/03/10 05:12:50;;;;;;;12.05;9.73;;;18.40;31.20;;;;;;5118936;28;20020;-41
2022/03/10 05:15:17;;;;;;;;;;;18.50;31.00;;;;;;5119691;28;20035;-41
2022/03/10 05:17:43;;;;;;;11.77;9.90;;;18.60;30.80;;;;;;5117841;28;20368;-41
2022/03/10 05:20:09;;;;;;;12.05;9.70;;;18.70;30.70;;;;;;5117985;28;20031;-39
2022/03/10 05:22:46;;;;;;;12.15;9.57;;;18.80;30.50;;;;;;5117572;28;20063;-41
2022/03/10 05:25:13;;;;;;;11.95;9.85;;;18.90;30.30;;;;;;5100556;28;20007;-42
2022/03/10 05:27:39;;;;;;;11.77;9.48;;;19.10;30.20;;;;;;5118084;28;20133;-45
2022/03/10 05:30:05;;;;;;;13.93;9.13;;;19.20;30.00;;;;;;5101190;28;20046;-42
2022/03/10 05:32:32;;;;;;;12.57;9.38;;;19.30;29.90;;;;;;5100255;28;20027;-43
2022/03/10 05:35:03;;;;;;;11.20;8.95;;;19.40;29.80;;;;;;5118931;28;20024;-42
2022/03/10 05:37:29;;;;;;;12.25;9.07;;;19.50;29.70;;;;;;5118272;28;20018;-42
2022/03/10 05:39:56;;;;;;;12.85;9.68;;;19.60;29.50;;;;;;5117984;28;20062;-41
2022/03/10 05:42:21;;;;;;;11.40;9.27;;;19.70;29.40;;;;;;5098861;28;20387;-42
2022/03/10 05:44:50;;;;;;;11.45;8.88;;;19.80;29.20;;;;;;5117810;28;20065;-44
2022/03/10 05:47:16;;;;;;;12.93;9.55;;;19.90;29.10;;;;;;5118987;28;20036;-43
2022/03/10 05:49:41;;;;;;;11.70;9.45;;;20.00;29.00;;;;;;5118513;28;20020;-41
2022/03/10 05:52:09;;;;;;;12.32;9.30;;;20.20;28.90;;;;;;5117888;28;20031;-42
2022/03/10 05:54:35;;;;;;;11.95;8.75;;;20.30;28.80;;;;;;5101022;28;20027;-43
2022/03/10 05:57:01;;;;;;;10.57;8.75;;;20.40;28.60;;;;;;5119587;28;20039;-37
2022/03/10 05:59:27;;;;;;;11.18;8.93;;;20.50;28.50;;;;;;5099285;28;20016;-40
2022/03/10 06:01:54;;;;;;;11.75;9.15;;;20.60;28.40;;;;;;5118300;28;20057;-45
2022/03/10 06:04:19;;;;;;;12.05;9.85;;;20.70;28.20;;;;;;5117742;28;20020;-41
2022/03/10 06:06:45;;;;;;;10.68;8.65;;;20.80;28.10;;;;;;5117878;28;20061;-42
2022/03/10 06:09:11;;;;;;;11.52;8.70;;;21.00;28.00;;;;;;5117282;28;20481;-41
2022/03/10 06:11:37;;;;;;;10.98;9.07;;;21.00;27.90;;;;;;5117800;28;20016;-40
2022/03/10 06:14:03;;;;;;;11.05;9.10;;;21.00;27.80;;;;;;5118847;28;20012;-37
2022/03/10 06:16:29;;;;;;;13.70;9.90;;;21.10;27.70;;;;;;5103713;28;20043;-43
2022/03/10 06:18:55;;;;;;;13.27;9.15;;;21.10;27.60;;;;;;5122917;28;20016;-41
2022/03/10 06:21:21;;;;;;;10.95;8.93;;;21.10;27.60;;;;;;5105941;28;20128;-43
2022/03/10 06:23:48;;;;;;;11.48;8.75;;;21.20;27.50;;;;;;5105956;28;20020;-39
2022/03/10 06:26:14;;;;;;;12.13;8.95;;;21.30;27.40;;;;;;5104153;28;20351;-38
2022/03/10 06:28:41;;;;;;;11.68;8.68;;;21.40;27.30;;;;;;5103666;28;20470;-38
2022/03/10 06:31:07;;;;;;;11.68;8.40;;;21.50;27.20;;;;;;5121720;28;20040;-38
2022/03/10 06:33:35;;;;;;;11.25;8.75;;;21.60;27.10;;;;;;5104207;28;20042;-38
2022/03/10 06:36:00;;;;;;;10.55;8.43;;;21.50;27.10;;;;;;5120733;28;20086;-38
2022/03/10 06:38:26;;;;;;;12.68;9.45;;;21.60;27.10;;;;;;5121258;28;20418;-39
2022/03/10 06:40:52;;;;;;;11.63;8.65;;;21.60;27.00;;;;;;5119944;28;20518;-38
2022/03/10 06:43:20;;;;;;;11.05;8.73;;;22.00;27.20;;;;;;5101805;28;20386;-37
2022/03/10 06:45:46;;;;;;;10.73;8.23;;;22.30;26.30;;;;;;5103054;28;20031;-38
2022/03/10 06:48:12;;;;;;;9.93;8.10;;;22.80;25.90;;;;;;5101379;28;20031;-36
2022/03/10 06:50:38;;;;;;;11.02;8.10;;;23.10;25.50;;;;;;5101100;28;20023;-38
2022/03/10 06:53:05;;;;;;;12.82;8.65;;;23.30;25.30;;;;;;5120041;28;20044;-38
2022/03/10 06:55:31;;;;;;;10.52;8.25;;;23.20;25.30;;;;;;5101547;28;20018;-37
2022/03/10 06:57:57;;;;;;;9.82;8.15;;;23.30;25.30;;;;;;5120403;28;20012;-37
2022/03/10 07:00:23;;;;;;;10.65;7.90;;;23.30;25.20;;;;;;5116282;28;20080;-38
2022/03/10 07:02:52;;;;;;;9.77;7.60;;;23.40;25.20;;;;;;5098945;28;20080;-36
2022/03/10 07:05:18;;;;;;;9.35;7.32;;;23.40;25.20;;;;;;5118508;28;20020;-37
2022/03/10 07:07:43;;;;;;;9.05;7.65;;;23.50;25.10;;;;;;5098292;28;20019;-37
2022/03/10 07:10:10;;;;;;;8.88;7.40;;;23.50;25.10;;;;;;5116123;28;20470;-36
2022/03/10 07:12:36;;;;;;;9.40;7.40;;;23.60;25.10;;;;;;5116762;28;20020;-36
2022/03/10 07:15:03;;;;;;;11.15;7.82;;;23.60;25.00;;;;;;5116503;28;20047;-36
2022/03/10 07:17:29;;;;;;;9.32;7.63;;;23.70;25.00;;;;;;5097387;28;20019;-35
2022/03/10 07:19:55;;;;;;;8.77;7.28;;;23.70;24.90;;;;;;5115377;28;20057;-36
2022/03/10 07:22:21;;;;;;;9.73;7.40;;;23.80;24.90;;;;;;5078005;28;20122;-37
2022/03/10 07:24:47;;;;;;;13.20;7.75;;;23.80;25.00;;;;;;5096234;28;20042;-36
2022/03/10 07:27:12;;;;;;;33.00;10.80;;;23.40;25.40;;;;;;5096072;28;20022;-35
2022/03/10 07:29:38;;;;;;;38.83;12.20;;;23.10;26.50;;;;;;5097983;28;20015;-34
2022/03/10 07:32:04;;;;;;;37.65;12.05;;;22.90;26.90;;;;;;5115350;28;20072;-36
2022/03/10 07:34:30;;;;;;;28.15;12.13;;;22.80;27.00;;;;;;5115492;28;20099;-34
2022/03/10 07:36:56;;;;;;;31.75;12.95;;;22.80;26.90;;;;;;5114927;28;20050;-34
2022/03/10 07:39:22;;;;;;;31.35;13.68;;;22.80;26.70;;;;;;5114791;28;20024;-35
2022/03/10 07:41:48;;;;;;;27.70;13.70;;;22.80;26.60;;;;;;5114976;28;20039;-35
2022/03/10 07:44:16;;;;;;;27.60;13.98;;;22.90;26.60;;;;;;5114912;28;20080;-36
2022/03/10 07:46:41;;;;;;;24.70;13.07;;;22.90;26.50;;;;;;5115369;28;20098;-36
2022/03/10 07:49:08;;;;;;;20.50;13.38;;;22.90;26.40;;;;;;5114603;28;20084;-36
2022/03/10 07:51:34;;;;;;;24.35;13.70;;;23.00;26.30;;;;;;5114930;28;20106;-36
2022/03/10 07:54:01;;;;;;;27.13;13.75;;;23.00;26.20;;;;;;5114991;28;20011;-36
2022/03/10 07:56:26;;;;;;;24.70;13.90;;;23.10;26.20;;;;;;5114509;28;20500;-34
2022/03/10 07:58:52;;;;;;;21.40;13.15;;;23.10;26.10;;;;;;5115077;28;20494;-35
2022/03/10 08:01:20;;;;;;;21.75;13.10;;;23.20;26.10;;;;;;5096385;28;20066;-35
2022/03/10 08:03:47;;;;;;;20.17;12.98;;;23.30;26.00;;;;;;5115110;28;20012;-34
2022/03/10 08:06:13;;;;;;;23.02;13.27;;;23.40;25.90;;;;;;5097504;28;20069;-37
2022/03/10 08:08:39;;;;;;;18.52;12.45;;;23.50;26.00;;;;;;5096149;28;20440;-35
2022/03/10 08:11:05;;;;;;;18.92;12.45;;;23.50;26.00;;;;;;5114832;28;20509;-35
2022/03/10 08:13:31;;;;;;;17.63;13.05;;;23.50;26.40;;;;;;5113334;28;20040;-36
2022/03/10 08:15:57;;;;;;;22.67;12.20;;;23.50;26.00;;;;;;5115599;28;20093;-37
2022/03/10 08:18:24;;;;;;;20.08;11.63;;;23.60;26.10;;;;;;5115116;28;20033;-36
2022/03/10 08:20:50;;;;;;;14.65;10.98;;;23.70;26.40;;;;;;5097172;28;20129;-35
2022/03/10 08:23:18;;;;;;;17.33;10.90;;;23.80;25.80;;;;;;5079514;28;20120;-36
2022/03/10 08:25:44;;;;;;;23.30;11.30;;;23.90;25.70;;;;;;5115495;28;20012;-36
2022/03/10 08:28:10;;;;;;;15.13;10.70;;;24.00;25.60;;;;;;5115151;28;20480;-36
2022/03/10 08:30:36;;;;;;;14.52;9.70;;;24.10;25.50;;;;;;5115356;28;20012;-38
2022/03/10 08:33:02;;;;;;;22.35;10.02;;;24.20;25.50;;;;;;5115875;28;20584;-38
2022/03/10 08:35:28;;;;;;;18.73;10.15;;;24.20;25.30;;;;;;5116023;28;20073;-36
2022/03/10 08:37:54;;;;;;;16.13;9.77;;;24.40;25.70;;;;;;5115323;28;20057;-37
2022/03/10 08:40:20;;;;;;;18.05;9.75;;;24.40;25.10;;;;;;5114932;28;20145;-35
2022/03/10 08:42:49;;;;;;;15.75;9.55;;;24.40;25.10;;;;;;5114938;28;20107;-35
2022/03/10 08:45:15;;;;;;;14.45;9.52;;;24.40;25.00;;;;;;5115056;28;20079;-35
2022/03/10 08:47:41;;;;;;;18.30;9.57;;;24.50;25.00;;;;;;5114214;28;20047;-35
2022/03/10 08:50:07;;;;;;;14.10;9.27;;;24.60;24.90;;;;;;5114960;28;20021;-36
2022/03/10 08:52:35;;;;;;;17.95;9.82;;;24.60;24.90;;;;;;5114796;28;20020;-39
2022/03/10 08:55:02;;;;;;;12.32;8.70;;;24.70;24.80;;;;;;5096629;28;20024;-36
2022/03/10 08:57:28;;;;;;;15.13;8.82;;;24.70;24.80;;;;;;5114971;28;20098;-36
2022/03/10 08:59:56;;;;;;;13.05;9.02;;;24.70;24.80;;;;;;5096243;28;20518;-36
2022/03/10 09:02:22;;;;;;;15.73;9.25;;;24.80;24.80;;;;;;5095881;28;20035;-39
2022/03/10 09:04:49;;;;;;;11.57;8.18;;;24.90;24.80;;;;;;5113934;28;20030;-36
2022/03/10 09:07:15;;;;;;;14.70;8.30;;;24.90;24.80;;;;;;5097385;28;20011;-41
2022/03/10 09:09:41;;;;;;;14.45;8.63;;;24.90;24.70;;;;;;5095894;28;20024;-38
2022/03/10 09:12:07;;;;;;;14.48;8.48;;;25.00;24.80;;;;;;5095427;28;20125;-38
2022/03/10 09:14:33;;;;;;;13.32;8.55;;;25.00;24.70;;;;;;5113439;28;20012;-36
2022/03/10 09:17:00;;;;;;;13.82;8.10;;;25.10;24.80;;;;;;5111553;28;20099;-37
2022/03/10 09:19:25;;;;;;;22.30;9.20;;;25.20;24.90;;;;;;5112051;28;20047;-39
2022/03/10 09:21:51;;;;;;;23.88;10.25;;;24.90;25.30;;;;;;5076895;28;20050;-41
2022/03/10 09:24:17;;;;;;;20.98;9.68;;;24.70;26.10;;;;;;5095005;28;20466;-38
2022/03/10 09:26:45;;;;;;;24.83;11.18;;;24.60;26.80;;;;;;5077552;28;20039;-39
2022/03/10 09:29:12;;;;;;;23.98;10.93;;;24.40;27.30;;;;;;5094280;28;20466;-37
2022/03/10 09:31:38;;;;;;;23.23;10.18;;;24.20;27.50;;;;;;5112781;28;20019;-38
2022/03/10 09:34:04;;;;;;;23.77;10.77;;;24.20;27.60;;;;;;5094210;28;20073;-38
2022/03/10 09:36:30;;;;;;;17.05;9.48;;;24.20;27.60;;;;;;5113069;28;20026;-39
2022/03/10 09:38:56;;;;;;;22.52;11.00;;;24.10;27.80;;;;;;5112873;28;20024;-40
2022/03/10 09:41:22;;;;;;;19.02;11.35;;;23.60;28.20;;;;;;5094082;28;20093;-40
2022/03/10 09:43:49;;;;;;;19.50;10.13;;;23.40;27.90;;;;;;5113504;28;20516;-39
2022/03/10 09:46:15;;;;;;;19.42;9.90;;;23.60;27.90;;;;;;5095068;28;20530;-38
2022/03/10 09:48:40;;;;;;;14.90;10.38;;;23.50;28.00;;;;;;5112674;28;20031;-39
2022/03/10 09:51:10;;;;;;;16.48;10.35;;;23.50;28.00;;;;;;5113235;28;20440;-38
2022/03/10 09:53:36;;;;;;;15.27;10.40;;;23.20;28.00;;;;;;5094238;28;20068;-38
2022/03/10 09:56:02;;;;;;;15.93;10.52;;;23.40;27.80;;;;;;5094774;28;20012;-39
2022/03/10 09:58:28;;;;;;;16.08;10.48;;;23.50;28.00;;;;;;5094613;28;20051;-38
2022/03/10 10:01:02;;;;;;;15.73;10.57;;;23.10;28.00;;;;;;5094914;28;20107;-39
2022/03/10 10:03:28;;;;;;;15.43;10.15;;;23.30;27.90;;;;;;5095117;28;20117;-38
2022/03/10 10:05:58;;;;;;;12.35;9.57;;;23.30;28.10;;;;;;5095140;28;20486;-39
2022/03/10 10:08:24;;;;;;;;;;;23.40;27.80;;;;;;5113159;28;20030;-38
2022/03/10 10:10:51;;;;;;;14.95;10.10;;;23.40;27.50;;;;;;5110509;28;20307;-40
2022/03/10 10:13:43;;;;;;;16.27;10.10;;;23.10;27.80;;;;;;5111879;28;20099;-40
2022/03/10 10:16:11;;;;;;;18.83;10.48;;;23.20;27.90;;;;;;5094501;28;20095;-37
2022/03/10 10:18:37;;;;;;;15.43;9.93;;;22.70;28.30;;;;;;5094997;28;20042;-38
2022/03/10 10:21:05;;;;;;;15.10;10.43;;;22.30;28.60;;;;;;5078274;28;20016;-38
2022/03/10 10:23:32;;;;;;;15.88;9.38;;;22.40;28.50;;;;;;5095169;28;20098;-37
2022/03/10 10:25:59;;;;;;;16.17;9.73;;;22.40;28.60;;;;;;5094693;28;20012;-38
2022/03/10 10:28:29;;;;;;;17.98;9.95;;;22.60;28.50;;;;;;5113001;28;20008;-38
2022/03/10 10:30:57;;;;;;;16.60;10.60;;;22.20;28.70;;;;;;5113732;28;20020;-38
2022/03/10 10:33:24;;;;;;;15.80;10.38;;;22.20;28.80;;;;;;5094629;28;20012;-37
2022/03/10 10:35:51;;;;;;;15.40;10.82;;;22.20;28.90;;;;;;5113491;28;20019;-37
2022/03/10 10:38:29;;;;;;;15.70;11.18;;;21.80;28.90;;;;;;5112949;28;20046;-38
2022/03/10 10:41:18;;;;;;;13.65;9.23;;;21.80;28.60;;;;;;5112427;28;20591;-39
2022/03/10 10:43:46;;;;;;;13.80;9.75;;;21.80;28.70;;;;;;5113404;28;20073;-38
2022/03/10 10:46:26;;;;;;;14.82;9.80;;;21.30;29.00;;;;;;5112544;28;20504;-38
2022/03/10 10:48:51;;;;;;;15.40;10.30;;;21.40;29.00;;;;;;5112601;28;20082;-38
2022/03/10 10:51:36;;;;;;;15.38;10.55;;;21.10;29.10;;;;;;5112852;28;20470;-38
2022/03/10 10:54:09;;;;;;;12.80;10.20;;;21.10;29.30;;;;;;5112603;28;20020;-37
2022/03/10 10:56:35;;;;;;;14.60;9.73;;;21.20;29.20;;;;;;5095575;28;20016;-38
2022/03/10 10:59:02;;;;;;;17.52;10.18;;;21.40;29.10;;;;;;5096961;28;20031;-38
2022/03/10 11:01:28;;;;;;;14.90;9.85;;;21.00;29.10;;;;;;5100578;28;20028;-43
2022/03/10 11:03:54;;;;;;;15.93;9.02;;;21.10;29.10;;;;;;5102200;28;20047;-46
2022/03/10 11:06:21;;;;;;;12.57;9.15;;;21.40;28.70;;;;;;5119729;28;20016;-40
2022/03/10 11:08:47;;;;;;;13.38;8.23;;;21.70;28.40;;;;;;5102361;28;20015;-42
2022/03/10 11:11:12;;;;;;;13.90;7.97;;;22.00;28.10;;;;;;5101260;28;20016;-44
2022/03/10 11:13:38;;;;;;;12.32;8.35;;;22.20;27.90;;;;;;5119161;28;20007;-40
2022/03/10 11:16:07;;;;;;;12.68;8.25;;;22.20;28.10;;;;;;5120388;28;20503;-39
2022/03/10 11:18:32;;;;;;;12.65;7.90;;;22.30;27.60;;;;;;5101835;28;20075;-38
2022/03/10 11:21:14;;;;;;;11.60;8.30;;;22.40;27.50;;;;;;5101000;28;20517;-41
2022/03/10 11:23:56;;;;;;;11.38;7.82;;;22.40;27.50;;;;;;5082981;28;20084;-39
2022/03/10 11:26:29;;;;;;;12.10;8.50;;;22.50;27.40;;;;;;5084182;28;20039;-38
2022/03/10 11:28:55;;;;;;;13.43;9.18;;;22.50;27.30;;;;;;5099514;28;20050;-39
2022/03/10 11:31:22;;;;;;;12.13;8.60;;;22.60;27.30;;;;;;5118535;28;20060;-40
2022/03/10 11:33:47;;;;;;;12.45;9.27;;;22.50;27.10;;;;;;5100459;28;20012;-40
2022/03/10 11:36:19;;;;;;;16.05;11.77;;;22.30;27.40;;;;;;5118249;27;20458;-41
2022/03/10 11:39:02;;;;;;;17.83;11.70;;;21.70;27.80;;;;;;5118196;28;20091;-38
2022/03/10 11:41:28;;;;;;;19.15;12.40;;;21.50;28.30;;;;;;5117195;28;20056;-38
2022/03/10 11:44:01;;;;;;;17.88;11.10;;;21.40;28.50;;;;;;5099409;28;20033;-38
2022/03/10 11:46:30;;;;;;;18.83;12.18;;;21.40;28.40;;;;;;5116393;28;20019;-38
2022/03/10 11:49:07;;;;;;;16.05;11.45;;;21.20;28.60;;;;;;5115430;28;20012;-38
2022/03/10 11:51:48;;;;;;;18.25;12.10;;;21.10;28.50;;;;;;5096306;28;20024;-37
2022/03/10 11:54:19;;;;;;;19.88;12.48;;;21.00;28.50;;;;;;5096528;28;20012;-37
2022/03/10 11:56:49;;;;;;;21.50;12.88;;;21.10;28.70;;;;;;5114871;28;20103;-39
2022/03/10 11:59:31;;;;;;;18.02;13.00;;;21.00;28.70;;;;;;5114175;28;20051;-38
2022/03/10 12:01:57;;;;;;;19.40;12.02;;;20.90;29.00;;;;;;5095641;28;20119;-38
2022/03/10 12:04:44;;;;;;;17.80;12.57;;;21.00;29.20;;;;;;5113744;28;20077;-38
2022/03/10 12:07:16;;;;;;;25.00;12.65;;;20.80;29.30;;;;;;5114614;28;20039;-39
2022/03/10 12:09:42;;;;;;;19.25;13.30;;;20.80;29.40;;;;;;5114306;28;20050;-38
2022/03/10 12:12:14;;;;;;;20.35;13.77;;;20.90;29.00;;;;;;5077742;28;20016;-38
2022/03/10 12:14:40;;;;;;;19.15;13.45;;;20.90;29.20;;;;;;5113704;28;20023;-38
2022/03/10 12:17:44;;;;;;;20.05;13.32;;;20.90;29.20;;;;;;5113779;28;20064;-36
2022/03/10 12:20:23;;;;;;;23.67;14.00;;;20.90;29.40;;;;;;5114034;28;20072;-38
2022/03/10 12:23:06;;;;;;;23.55;13.68;;;20.80;29.30;;;;;;5113869;28;20020;-39
2022/03/10 12:25:47;;;;;;;21.70;14.15;;;20.70;29.60;;;;;;5113445;28;20016;-36
2022/03/10 12:28:27;;;;;;;20.20;13.95;;;20.50;29.60;;;;;;5094858;28;20016;-36
2022/03/10 12:31:16;;;;;;;20.50;13.10;;;20.50;29.60;;;;;;5113536;28;20318;-37
2022/03/10 12:33:48;;;;;;;24.15;13.82;;;20.80;29.70;;;;;;5112890;28;20515;-36
2022/03/10 12:36:16;;;;;;;20.33;13.23;;;21.00;29.70;;;;;;5077513;28;20019;-36
2022/03/10 12:38:46;;;;;;;24.48;12.10;;;21.00;29.60;;;;;;5112427;28;20012;-36
2022/03/10 12:41:17;;;;;;;19.50;11.90;;;20.80;29.40;;;;;;5094129;28;20054;-37